createdAt,value
2023-05-21T00:01:16.349Z,98017.25
2023-05-21T00:06:37.261Z,98013.50
2023-05-21T00:11:58.421Z,98004.19
2023-05-21T00:17:18.965Z,97999.31
2023-05-21T00:22:40.370Z,97991.28
2023-05-21T00:28:01.366Z,97993.25
2023-05-21T00:33:22.019Z,97986.16
2023-05-21T00:38:43.853Z,97982.50
2023-05-21T00:44:04.840Z,97983.13
2023-05-21T00:49:25.971Z,97977.16
2023-05-21T00:54:47.651Z,97974.97
2023-05-21T01:00:09.132Z,97970.50
2023-05-21T01:05:30.154Z,97967.22
2023-05-21T01:10:50.696Z,97959.66
2023-05-21T01:16:13.463Z,97961.63
2023-05-21T01:21:36.056Z,97955.78
2023-05-21T01:26:58.677Z,97955.03
2023-05-21T01:32:25.283Z,97953.59
2023-05-21T01:37:51.696Z,97954.19
2023-05-21T01:43:12.194Z,97959.69
2023-05-21T01:48:32.941Z,97952.75
2023-05-21T01:53:53.553Z,97949.69
2023-05-21T01:59:14.183Z,97954.09
2023-05-21T02:04:34.774Z,97946.88
2023-05-21T02:09:55.483Z,97948.13
2023-05-21T02:15:18.137Z,97952.03
2023-05-21T02:20:39.426Z,97948.13
2023-05-21T02:26:00.132Z,97951.44
2023-05-21T02:31:20.773Z,97951.19
2023-05-21T02:36:41.666Z,97947.91
2023-05-21T02:42:02.522Z,97943.41
2023-05-21T02:47:23.876Z,97943.16
2023-05-21T02:52:44.300Z,97932.66
2023-05-21T02:58:05.123Z,97930.47
2023-05-21T03:03:25.956Z,97942.53
2023-05-21T03:08:46.935Z,97952.56
2023-05-21T03:14:07.514Z,97938.03
2023-05-21T03:19:30.466Z,97936.06
2023-05-21T03:24:51.676Z,97939.25
2023-05-21T03:30:12.660Z,97943.38
2023-05-21T03:35:50.897Z,97935.53
2023-05-21T03:41:11.786Z,97926.50
2023-05-21T03:46:34.486Z,97932.28
2023-05-21T03:52:04.715Z,97940.44
2023-05-21T03:57:25.162Z,97940.75
2023-05-21T04:02:45.854Z,97944.31
2023-05-21T04:08:10.356Z,97938.56
2023-05-21T04:13:31.335Z,97943.50
2023-05-21T04:18:52.371Z,97939.47
2023-05-21T04:24:13.719Z,97944.50
2023-05-21T04:30:00.703Z,97942.16
2023-05-21T04:35:21.437Z,97957.38
2023-05-21T04:40:42.258Z,97952.00
2023-05-21T04:46:02.897Z,97961.44
2023-05-21T04:51:24.909Z,97955.88
2023-05-21T04:56:47.435Z,97966.91
2023-05-21T05:02:08.755Z,97959.50
2023-05-21T05:07:29.656Z,97950.75
2023-05-21T05:12:50.650Z,97952.09
2023-05-21T05:18:12.911Z,97951.16
2023-05-21T05:23:34.767Z,97951.63
2023-05-21T05:28:55.735Z,97953.50
2023-05-21T05:34:16.567Z,97952.19
2023-05-21T05:39:37.549Z,97953.03
2023-05-21T05:44:58.672Z,97946.78
2023-05-21T05:50:19.899Z,97945.41
2023-05-21T05:55:41.237Z,97941.16
2023-05-21T06:01:02.437Z,97942.47
2023-05-21T06:06:24.117Z,97938.34
2023-05-21T06:11:45.500Z,97934.81
2023-05-21T06:17:06.333Z,97936.28
2023-05-21T06:22:27.757Z,97934.88
2023-05-21T06:27:49.375Z,97948.47
2023-05-21T06:33:15.293Z,97944.28
2023-05-21T06:38:36.956Z,97945.25
2023-05-21T06:43:58.101Z,97932.94
2023-05-21T06:49:38.091Z,97935.97
2023-05-21T06:54:58.997Z,97935.47
2023-05-21T07:00:23.232Z,97935.84
2023-05-21T07:05:44.676Z,97935.25
2023-05-21T07:11:06.313Z,97937.47
2023-05-21T07:16:27.836Z,97944.53
2023-05-21T07:21:49.414Z,97937.44
2023-05-21T07:27:24.752Z,97943.16
2023-05-21T07:32:48.114Z,97946.06
2023-05-21T07:38:09.393Z,97941.06
2023-05-21T07:43:31.961Z,97944.63
2023-05-21T07:48:53.249Z,97943.22
2023-05-21T07:54:14.643Z,97950.28
2023-05-21T07:59:36.517Z,97938.88
2023-05-21T08:04:57.848Z,97944.63
2023-05-21T08:10:19.609Z,97941.03
2023-05-21T08:15:43.033Z,97942.41
2023-05-21T08:21:05.308Z,97940.78
2023-05-21T08:26:26.835Z,97936.81
2023-05-21T08:31:47.944Z,97926.69
2023-05-21T08:37:09.373Z,97929.69
2023-05-21T08:42:53.075Z,97932.34
2023-05-21T08:48:23.431Z,97927.69
2023-05-21T08:53:45.874Z,97933.50
2023-05-21T08:59:09.680Z,97918.31
2023-05-21T09:04:31.569Z,97917.34
2023-05-21T09:10:03.422Z,97921.53
2023-05-21T09:15:24.894Z,97913.13
2023-05-21T09:20:46.487Z,97907.44
2023-05-21T09:26:11.398Z,97911.94
2023-05-21T09:31:33.402Z,97911.50
2023-05-21T09:36:57.751Z,97914.63
2023-05-21T09:42:21.741Z,97911.88
2023-05-21T09:47:44.012Z,97917.44
2023-05-21T09:53:05.318Z,97913.88
2023-05-21T09:58:26.729Z,97899.53
2023-05-21T10:03:50.782Z,97906.19
2023-05-21T10:09:11.815Z,97896.59
2023-05-21T10:14:32.961Z,97896.38
2023-05-21T10:19:54.112Z,97894.16
2023-05-21T10:25:14.979Z,97891.47
2023-05-21T10:30:36.862Z,97878.25
2023-05-21T10:35:58.758Z,97874.38
2023-05-21T10:41:20.320Z,97858.91
2023-05-21T10:47:43.002Z,97869.28
2023-05-21T10:53:25.474Z,97862.13
2023-05-21T10:58:57.750Z,97857.06
2023-05-21T11:04:22.124Z,97875.53
2023-05-21T11:09:43.421Z,97871.41
2023-05-21T11:15:04.852Z,97861.38
2023-05-21T11:20:34.318Z,97857.06
2023-05-21T11:26:01.462Z,97854.81
2023-05-21T11:31:26.129Z,97850.50
2023-05-21T11:36:47.878Z,97856.34
2023-05-21T11:42:08.890Z,97847.78
2023-05-21T11:47:30.495Z,97849.94
2023-05-21T11:52:52.959Z,97848.50
2023-05-21T11:58:14.672Z,97852.06
2023-05-21T12:03:36.139Z,97838.44
2023-05-21T12:08:58.585Z,97841.31
2023-05-21T12:14:19.377Z,97834.13
2023-05-21T12:19:40.608Z,97839.88
2023-05-21T12:25:02.150Z,97826.19
2023-05-21T12:30:23.226Z,97823.28
2023-05-21T12:35:50.582Z,97821.19
2023-05-21T12:41:11.375Z,97822.66
2023-05-21T12:46:32.446Z,97817.66
2023-05-21T12:51:53.434Z,97819.81
2023-05-21T12:57:18.598Z,97818.09
2023-05-21T13:02:44.342Z,97809.59
2023-05-21T13:08:06.223Z,97804.63
2023-05-21T13:13:27.007Z,97796.06
2023-05-21T13:18:47.815Z,97801.09
2023-05-21T13:24:08.444Z,97796.81
2023-05-21T13:29:29.223Z,97798.94
2023-05-21T13:34:52.657Z,97788.16
2023-05-21T13:40:15.274Z,97788.06
2023-05-21T13:45:36.783Z,97784.94
2023-05-21T13:50:57.699Z,97782.03
2023-05-21T13:56:18.580Z,97773.59
2023-05-21T14:01:39.311Z,97766.56
2023-05-21T14:07:00.004Z,97757.25
2023-05-21T14:12:21.847Z,97772.06
2023-05-21T14:17:42.700Z,97773.56
2023-05-21T14:23:03.434Z,97773.63
2023-05-21T14:28:24.292Z,97791.50
2023-05-21T14:33:44.712Z,97766.44
2023-05-21T14:39:05.983Z,97762.19
2023-05-21T14:44:27.000Z,97755.06
2023-05-21T14:49:49.012Z,97752.22
2023-05-21T14:55:12.854Z,97753.75
2023-05-21T15:00:34.311Z,97753.69
2023-05-21T15:05:55.050Z,97762.94
2023-05-21T15:11:15.872Z,97766.41
2023-05-21T15:16:37.077Z,97762.03
2023-05-21T15:21:57.925Z,97760.56
2023-05-21T15:27:18.595Z,97754.84
2023-05-21T15:32:39.251Z,97744.78
2023-05-21T15:38:00.094Z,97744.09
2023-05-21T15:43:20.668Z,97733.38
2023-05-21T15:48:41.302Z,97734.69
2023-05-21T15:54:02.016Z,97733.09
2023-05-21T15:59:22.655Z,97720.19
2023-05-21T16:04:43.625Z,97727.28
2023-05-21T16:10:04.426Z,97712.19
2023-05-21T16:15:25.621Z,97722.88
2023-05-21T16:20:47.099Z,97728.47
2023-05-21T16:26:08.717Z,97725.53
2023-05-21T16:31:29.561Z,97725.50
2023-05-21T16:36:51.670Z,97729.00
2023-05-21T16:42:12.195Z,97722.53
2023-05-21T16:47:33.075Z,97712.41
2023-05-21T16:52:53.550Z,97726.56
2023-05-21T16:58:14.282Z,97721.50
2023-05-21T17:03:35.327Z,97728.50
2023-05-21T17:08:56.083Z,97722.72
2023-05-21T17:14:32.523Z,97725.50
2023-05-21T17:19:55.019Z,97731.72
2023-05-21T17:25:16.109Z,97738.91
2023-05-21T17:30:37.236Z,97744.09
2023-05-21T17:35:58.020Z,97752.22
2023-05-21T17:41:19.377Z,97748.31
2023-05-21T17:46:40.163Z,97757.88
2023-05-21T17:52:03.079Z,97762.44
2023-05-21T17:57:24.572Z,97751.41
2023-05-21T18:02:46.186Z,97759.56
2023-05-21T18:08:09.976Z,97771.97
2023-05-21T18:13:30.979Z,97771.44
2023-05-21T18:18:51.969Z,97770.47
2023-05-21T18:24:12.981Z,97763.63
2023-05-21T18:29:33.707Z,97753.97
2023-05-21T18:34:54.360Z,97765.75
2023-05-21T18:40:15.227Z,97764.53
2023-05-21T18:45:36.763Z,97758.50
2023-05-21T18:50:57.983Z,97770.19
2023-05-21T18:56:18.675Z,97771.13
2023-05-21T19:01:39.430Z,97768.56
2023-05-21T19:06:59.938Z,97773.22
2023-05-21T19:12:20.846Z,97784.19
2023-05-21T19:17:41.661Z,97780.31
2023-05-21T19:23:02.511Z,97779.25
2023-05-21T19:28:23.311Z,97792.50
2023-05-21T19:33:43.997Z,97781.63
2023-05-21T19:39:04.607Z,97795.69
2023-05-21T19:44:25.405Z,97798.31
2023-05-21T19:49:46.137Z,97788.88
2023-05-21T19:55:08.704Z,97796.41
2023-05-21T20:00:29.636Z,97798.13
2023-05-21T20:05:50.488Z,97798.56
2023-05-21T20:11:11.275Z,97793.25
2023-05-21T20:16:31.958Z,97799.97
2023-05-21T20:21:52.891Z,97802.53
2023-05-21T20:27:18.614Z,97811.59
2023-05-21T20:32:39.210Z,97805.06
2023-05-21T20:38:02.228Z,97802.03
2023-05-21T20:43:24.535Z,97799.00
2023-05-21T20:48:45.642Z,97801.63
2023-05-21T20:54:06.731Z,97801.47
2023-05-21T20:59:27.839Z,97804.81
2023-05-21T21:04:49.182Z,97817.94
2023-05-21T21:10:10.113Z,97827.63
2023-05-21T21:15:30.972Z,97816.75
2023-05-21T21:20:51.831Z,97821.44
2023-05-21T21:26:12.712Z,97823.38
2023-05-21T21:31:34.105Z,97824.63
2023-05-21T21:36:54.703Z,97818.66
2023-05-21T21:42:15.648Z,97821.97
2023-05-21T21:47:36.848Z,97814.72
2023-05-21T21:52:57.513Z,97819.34
2023-05-21T21:58:18.237Z,97815.63
2023-05-21T22:03:38.923Z,97813.22
2023-05-21T22:08:59.547Z,97805.22
2023-05-21T22:14:20.368Z,97812.41
2023-05-21T22:19:41.239Z,97810.47
2023-05-21T22:25:02.142Z,97812.06
2023-05-21T22:30:22.999Z,97820.84
2023-05-21T22:35:44.799Z,97817.41
2023-05-21T22:41:05.827Z,97806.06
2023-05-21T22:46:26.629Z,97804.34
2023-05-21T22:51:48.063Z,97794.34
2023-05-21T22:57:09.141Z,97802.53
2023-05-21T23:02:30.532Z,97788.13
2023-05-21T23:07:51.932Z,97786.63
2023-05-21T23:13:12.996Z,97785.03
2023-05-21T23:18:34.765Z,97787.84
2023-05-21T23:23:55.746Z,97779.47
2023-05-21T23:29:16.599Z,97780.84
2023-05-21T23:34:37.455Z,97787.78
2023-05-21T23:39:58.459Z,97790.31
2023-05-21T23:45:19.163Z,97783.81
2023-05-21T23:50:40.306Z,97776.97
2023-05-21T23:56:01.019Z,97787.25
